Terminal Aerodrome Forecast
Issued by NWS

Home | Current Version | Previous Version | Graphics & Text | Print | Product List | Glossary On
Versions: 1 2 3 4 5 6 7 8 9 10 11 12 13 14 15 16 17
928
FTUS43 KGRB 221506 AAA
TAFAUW
TAF AMD
KAUW 221506Z 2215/2312 26009G14KT P6SM BKN030
     FM221700 25012G20KT P6SM BKN035
     FM230100 30005KT P6SM SCT035 BKN060
     FM230500 27004KT P6SM BKN050=

USA.gov is the U.S. government's official web portal to all federal, state and local government web resources and services.